Wetterdaten: aktuell Samstag, 14.12.2019 10:50
Datum Zeit Temp 2m Temp 2m ob Temp 10cm Feuchte 2 m Regen Wind mittel Richtung Richtung Taupunkt Windben
14.12.2019 10:50 4,7 C 4,3 C 4,4 C 90 % 0,0 l/m 12,7 km/h W-SW 247 3,2 C 10,9 km/h
14.12.2019 10:45 4,7 C 4,3 C 4,5 C 90 % 0,0 l/m 13,5 km/h W-NW 292 3,2 C 9,5 km/h
14.12.2019 10:40 4,8 C 4,2 C 4,5 C 91 % 0,0 l/m 14,2 km/h SW 225 3,5 C 17,1 km/h
14.12.2019 10:35 4,8 C 4,3 C 4,6 C 91 % 0,0 l/m 14,3 km/h W-SW 247 3,5 C 17,2 km/h
14.12.2019 10:30 4,8 C 4,3 C 4,6 C 91 % 0,0 l/m 14,6 km/h W-SW 247 3,5 C 20,3 km/h
14.12.2019 10:25 4,7 C 4,2 C 4,6 C 92 % 0,0 l/m 16,3 km/h W 270 3,5 C 18,5 km/h
14.12.2019 10:20 4,7 C 4,1 C 4,6 C 92 % 0,0 l/m 14,5 km/h W-NW 292 3,5 C 32,7 km/h
14.12.2019 10:15 4,7 C 4,0 C 4,5 C 92 % 0,0 l/m 11,6 km/h W-SW 247 3,5 C 18,0 km/h
14.12.2019 10:10 4,6 C 4,0 C 4,5 C 93 % 0,0 l/m 12,2 km/h W 270 3,6 C 10,8 km/h
14.12.2019 10:05 4,6 C 3,8 C 4,4 C 93 % 0,0 l/m 11,3 km/h SW 225 3,6 C 15,1 km/h
14.12.2019 10:00 4,5 C 3,7 C 4,3 C 92 % 0,0 l/m 10,8 km/h W-SW 247 3,3 C 31,1 km/h
14.12.2019 09:55 4,5 C 3,6 C 4,1 C 92 % 0,0 l/m 8,9 km/h S-SW 202 3,3 C 14,0 km/h
14.12.2019 09:50 4,3 C 3,4 C 4,1 C 92 % 0,0 l/m 10,6 km/h SO 135 3,1 C 28,6 km/h
14.12.2019 09:45 4,3 C 3,3 C 3,9 C 92 % 0,0 l/m 10,8 km/h W 270 3,1 C 6,0 km/h
14.12.2019 09:40 4,1 C 3,1 C 3,9 C 92 % 0,0 l/m 9,8 km/h W 270 2,9 C 27,4 km/h
14.12.2019 09:35 4,0 C 3,1 C 3,7 C 92 % 0,0 l/m 7,7 km/h W 270 2,8 C 15,4 km/h
14.12.2019 09:30 3,9 C 3,1 C 3,7 C 92 % 0,0 l/m 6,4 km/h W 270 2,7 C 12,6 km/h
14.12.2019 09:25 3,9 C 0,6 C 3,6 C 92 % 0,0 l/m 6,4 km/h W-SW 247 2,7 C 13,0 km/h
14.12.2019 09:20 3,8 C 0,6 C 3,5 C 92 % 0,7 l/m 6,1 km/h W 270 2,6 C 9,0 km/h
14.12.2019 09:15 3,7 C 0,6 C 3,4 C 91 % 0,0 l/m 4,5 km/h W 270 2,4 C 3,5 km/h
14.12.2019 09:10 3,6 C 0,6 C 3,3 C 91 % 0,0 l/m 4,0 km/h W-SW 247 2,3 C 7,7 km/h
14.12.2019 09:05 3,5 C 0,6 C 3,1 C 91 % 0,0 l/m 2,9 km/h NO 45 2,2 C 3,5 km/h
14.12.2019 09:00 3,5 C 0,6 C 3,1 C 91 % 0,0 l/m 3,7 km/h SW 225 2,2 C 7,7 km/h
14.12.2019 08:55 3,4 C 0,6 C 3,1 C 91 % 0,0 l/m 4,3 km/h SW 225 2,1 C 2,3 km/h
14.12.2019 08:50 3,3 C 0,6 C 3,0 C 90 % 0,0 l/m 3,4 km/h W-SW 247 1,8 C 11,9 km/h
14.12.2019 08:45 3,3 C 0,6 C 3,0 C 90 % 0,0 l/m 1,9 km/h SW 225 1,8 C 5,1 km/h
_ Min-Zeit 23:00 15:40 11:00 12:30 - 15:45 - - 11:00 11:00
Minimum _ 1,1 C 0,5 C 0,7 C 84 % - 0,2 km/h - - -0,5 C 0,0 km/h
_ Max-Zeit 10:30 10:30 10:20 20:45 16:10 10:25 - - 10:05 10:20
Maximum _ 4,8 C 4,3 C 4,6 C 93 % 0,7 l/m 16,3 km/h
W
- - 3,6 C 32,7 km/h
W-NW
Durchschnitt _ 2,4 C 0,9 C 2,0 C 91 % #11,7 l/m 3,7 km/h W-SW - 1,0 C 5,3 km/h